sensor_id;sensor_type;location;lat;lon;timestamp;pressure;altitude;pressure_sealevel;temperature;humidity
54996;BME280;40893;47.146;9.126;2022-08-19T00:01:26;90959.47;;;15.85;100.00
54996;BME280;40893;47.146;9.126;2022-08-19T00:03:52;90961.44;;;15.88;100.00
54996;BME280;40893;47.146;9.126;2022-08-19T00:06:18;90962.63;;;15.90;100.00
54996;BME280;40893;47.146;9.126;2022-08-19T00:08:44;90962.63;;;15.90;100.00
54996;BME280;40893;47.146;9.126;2022-08-19T00:11:12;90969.63;;;15.90;100.00
54996;BME280;40893;47.146;9.126;2022-08-19T00:13:38;90966.53;;;15.96;100.00
54996;BME280;40893;47.146;9.126;2022-08-19T00:16:04;90976.72;;;16.02;100.00
54996;BME280;40893;47.146;9.126;2022-08-19T00:18:31;90976.25;;;16.00;100.00
54996;BME280;40893;47.146;9.126;2022-08-19T00:20:57;90971.84;;;16.00;100.00
54996;BME280;40893;47.146;9.126;2022-08-19T00:23:23;90981.13;;;16.01;100.00
54996;BME280;40893;47.146;9.126;2022-08-19T00:25:48;90966.66;;;16.00;100.00
54996;BME280;40893;47.146;9.126;2022-08-19T00:28:14;90971.53;;;16.02;100.00
54996;BME280;40893;47.146;9.126;2022-08-19T00:30:39;90965.38;;;16.06;100.00
54996;BME280;40893;47.146;9.126;2022-08-19T00:33:06;90968.44;;;16.08;100.00
54996;BME280;40893;47.146;9.126;2022-08-19T00:35:33;90969.31;;;16.12;100.00
54996;BME280;40893;47.146;9.126;2022-08-19T00:37:59;90964.31;;;16.07;100.00
54996;BME280;40893;47.146;9.126;2022-08-19T00:40:25;90955.50;;;16.08;100.00
54996;BME280;40893;47.146;9.126;2022-08-19T00:42:51;90953.97;;;16.07;100.00
54996;BME280;40893;47.146;9.126;2022-08-19T00:45:21;90949.41;;;16.04;100.00
54996;BME280;40893;47.146;9.126;2022-08-19T00:47:47;90948.44;;;15.96;100.00
54996;BME280;40893;47.146;9.126;2022-08-19T00:50:16;90947.13;;;15.90;100.00
54996;BME280;40893;47.146;9.126;2022-08-19T00:52:45;90940.75;;;15.88;100.00
54996;BME280;40893;47.146;9.126;2022-08-19T00:55:16;90932.22;;;15.87;100.00
54996;BME280;40893;47.146;9.126;2022-08-19T00:57:48;90940.13;;;15.91;100.00
54996;BME280;40893;47.146;9.126;2022-08-19T01:00:18;90936.56;;;15.95;100.00
54996;BME280;40893;47.146;9.126;2022-08-19T01:02:44;90935.31;;;16.02;100.00
54996;BME280;40893;47.146;9.126;2022-08-19T01:05:17;90923.56;;;16.04;100.00
54996;BME280;40893;47.146;9.126;2022-08-19T01:07:44;90920.59;;;15.93;100.00
54996;BME280;40893;47.146;9.126;2022-08-19T01:10:13;90912.53;;;15.95;100.00
54996;BME280;40893;47.146;9.126;2022-08-19T01:12:40;90933.34;;;15.98;100.00
54996;BME280;40893;47.146;9.126;2022-08-19T01:15:07;90929.56;;;15.96;100.00
54996;BME280;40893;47.146;9.126;2022-08-19T01:17:36;90929.13;;;15.94;100.00
54996;BME280;40893;47.146;9.126;2022-08-19T01:20:04;90920.81;;;15.88;100.00
54996;BME280;40893;47.146;9.126;2022-08-19T01:22:38;90926.47;;;15.82;100.00
54996;BME280;40893;47.146;9.126;2022-08-19T01:25:07;90937.56;;;15.82;100.00
54996;BME280;40893;47.146;9.126;2022-08-19T01:27:42;90936.81;;;15.82;100.00
54996;BME280;40893;47.146;9.126;2022-08-19T01:30:43;90932.09;;;15.84;100.00
54996;BME280;40893;47.146;9.126;2022-08-19T01:33:02;90931.00;;;15.85;100.00
54996;BME280;40893;47.146;9.126;2022-08-19T01:35:30;90941.38;;;15.85;100.00
54996;BME280;40893;47.146;9.126;2022-08-19T01:38:03;90929.94;;;15.86;100.00
54996;BME280;40893;47.146;9.126;2022-08-19T01:40:34;90929.31;;;15.89;100.00
54996;BME280;40893;47.146;9.126;2022-08-19T01:43:01;90931.59;;;15.90;100.00
54996;BME280;40893;47.146;9.126;2022-08-19T01:45:29;90930.63;;;15.95;100.00
54996;BME280;40893;47.146;9.126;2022-08-19T01:47:56;90928.34;;;15.93;100.00
54996;BME280;40893;47.146;9.126;2022-08-19T01:50:22;90922.72;;;15.91;100.00
54996;BME280;40893;47.146;9.126;2022-08-19T01:52:47;90923.06;;;15.90;100.00
54996;BME280;40893;47.146;9.126;2022-08-19T01:55:19;90920.50;;;15.90;100.00
54996;BME280;40893;47.146;9.126;2022-08-19T01:57:52;90908.81;;;15.84;100.00
54996;BME280;40893;47.146;9.126;2022-08-19T02:00:22;90907.59;;;15.81;100.00
54996;BME280;40893;47.146;9.126;2022-08-19T02:02:48;90907.19;;;15.79;100.00
54996;BME280;40893;47.146;9.126;2022-08-19T02:05:14;90905.66;;;15.78;100.00
54996;BME280;40893;47.146;9.126;2022-08-19T02:07:41;90890.91;;;15.79;100.00
54996;BME280;40893;47.146;9.126;2022-08-19T02:10:11;90898.34;;;15.80;100.00
54996;BME280;40893;47.146;9.126;2022-08-19T02:12:36;90891.97;;;15.78;100.00
54996;BME280;40893;47.146;9.126;2022-08-19T02:15:03;90899.75;;;15.78;100.00
54996;BME280;40893;47.146;9.126;2022-08-19T02:17:29;90911.59;;;15.79;100.00
54996;BME280;40893;47.146;9.126;2022-08-19T02:19:55;90912.38;;;15.79;100.00
54996;BME280;40893;47.146;9.126;2022-08-19T02:22:22;90912.03;;;15.81;100.00
54996;BME280;40893;47.146;9.126;2022-08-19T02:24:47;90916.13;;;15.82;100.00
54996;BME280;40893;47.146;9.126;2022-08-19T02:27:14;90915.94;;;15.87;100.00
54996;BME280;40893;47.146;9.126;2022-08-19T02:29:40;90914.25;;;15.91;100.00
54996;BME280;40893;47.146;9.126;2022-08-19T02:32:06;90909.50;;;15.93;100.00
54996;BME280;40893;47.146;9.126;2022-08-19T02:34:33;90909.63;;;15.96;100.00
54996;BME280;40893;47.146;9.126;2022-08-19T02:36:58;90907.03;;;15.96;100.00
54996;BME280;40893;47.146;9.126;2022-08-19T02:39:24;90899.47;;;15.91;100.00
54996;BME280;40893;47.146;9.126;2022-08-19T02:41:49;90901.31;;;15.91;100.00
54996;BME280;40893;47.146;9.126;2022-08-19T02:44:16;90899.91;;;15.93;100.00
54996;BME280;40893;47.146;9.126;2022-08-19T02:46:41;90892.91;;;15.94;100.00
54996;BME280;40893;47.146;9.126;2022-08-19T02:49:08;90893.97;;;15.93;100.00
54996;BME280;40893;47.146;9.126;2022-08-19T02:51:40;90891.97;;;15.98;100.00
54996;BME280;40893;47.146;9.126;2022-08-19T02:54:08;90886.91;;;16.02;100.00
54996;BME280;40893;47.146;9.126;2022-08-19T02:56:35;90898.13;;;16.06;100.00
54996;BME280;40893;47.146;9.126;2022-08-19T02:59:01;90893.38;;;16.08;100.00
54996;BME280;40893;47.146;9.126;2022-08-19T03:01:30;90905.25;;;16.09;100.00
54996;BME280;40893;47.146;9.126;2022-08-19T03:03:58;90909.84;;;16.04;100.00
54996;BME280;40893;47.146;9.126;2022-08-19T03:06:25;90907.47;;;15.98;100.00
54996;BME280;40893;47.146;9.126;2022-08-19T03:08:51;90903.56;;;15.92;100.00
54996;BME280;40893;47.146;9.126;2022-08-19T03:11:27;90903.19;;;15.82;100.00
54996;BME280;40893;47.146;9.126;2022-08-19T03:13:53;90907.19;;;15.79;100.00
54996;BME280;40893;47.146;9.126;2022-08-19T03:16:21;90899.91;;;15.73;100.00
54996;BME280;40893;47.146;9.126;2022-08-19T03:18:47;90897.47;;;15.76;100.00
54996;BME280;40893;47.146;9.126;2022-08-19T03:21:24;90901.13;;;15.75;100.00
54996;BME280;40893;47.146;9.126;2022-08-19T03:23:54;90905.28;;;15.68;100.00
54996;BME280;40893;47.146;9.126;2022-08-19T03:26:19;90900.22;;;15.71;100.00
54996;BME280;40893;47.146;9.126;2022-08-19T03:28:46;90897.34;;;15.73;100.00
54996;BME280;40893;47.146;9.126;2022-08-19T03:31:17;90896.50;;;15.81;100.00
54996;BME280;40893;47.146;9.126;2022-08-19T03:33:44;90896.31;;;15.86;100.00
54996;BME280;40893;47.146;9.126;2022-08-19T03:36:10;90890.84;;;15.87;100.00
54996;BME280;40893;47.146;9.126;2022-08-19T03:38:39;90884.28;;;15.90;100.00
54996;BME280;40893;47.146;9.126;2022-08-19T03:41:07;90880.34;;;15.84;100.00
54996;BME280;40893;47.146;9.126;2022-08-19T03:43:35;90893.72;;;15.86;100.00
54996;BME280;40893;47.146;9.126;2022-08-19T03:46:10;90884.28;;;15.90;100.00
54996;BME280;40893;47.146;9.126;2022-08-19T03:48:37;90872.88;;;15.91;100.00
54996;BME280;40893;47.146;9.126;2022-08-19T03:51:05;90867.03;;;15.94;100.00
54996;BME280;40893;47.146;9.126;2022-08-19T03:53:32;90873.50;;;15.88;100.00
54996;BME280;40893;47.146;9.126;2022-08-19T03:55:58;90871.41;;;15.81;100.00
54996;BME280;40893;47.146;9.126;2022-08-19T03:58:28;90868.72;;;15.78;100.00
54996;BME280;40893;47.146;9.126;2022-08-19T04:00:56;90863.97;;;15.80;100.00
54996;BME280;40893;47.146;9.126;2022-08-19T04:03:23;90864.53;;;15.85;100.00
54996;BME280;40893;47.146;9.126;2022-08-19T04:05:49;90871.66;;;15.88;100.00
54996;BME280;40893;47.146;9.126;2022-08-19T04:08:16;90872.41;;;15.89;100.00
54996;BME280;40893;47.146;9.126;2022-08-19T04:10:46;90879.88;;;15.90;100.00
54996;BME280;40893;47.146;9.126;2022-08-19T04:13:11;90884.38;;;15.93;100.00
54996;BME280;40893;47.146;9.126;2022-08-19T04:15:42;90891.69;;;15.91;100.00
54996;BME280;40893;47.146;9.126;2022-08-19T04:18:09;90892.78;;;15.90;100.00
54996;BME280;40893;47.146;9.126;2022-08-19T04:20:46;90883.84;;;15.88;100.00
54996;BME280;40893;47.146;9.126;2022-08-19T04:23:13;90871.00;;;15.91;100.00
54996;BME280;40893;47.146;9.126;2022-08-19T04:25:42;90877.28;;;15.90;100.00
54996;BME280;40893;47.146;9.126;2022-08-19T04:28:09;90879.53;;;15.92;100.00
54996;BME280;40893;47.146;9.126;2022-08-19T04:33:05;90895.75;;;16.01;100.00
54996;BME280;40893;47.146;9.126;2022-08-19T04:35:36;90886.16;;;16.02;100.00
54996;BME280;40893;47.146;9.126;2022-08-19T04:38:02;90885.44;;;15.92;100.00
54996;BME280;40893;47.146;9.126;2022-08-19T04:40:28;90887.81;;;15.85;100.00
54996;BME280;40893;47.146;9.126;2022-08-19T04:43:12;90896.47;;;15.89;100.00
54996;BME280;40893;47.146;9.126;2022-08-19T04:45:42;90899.78;;;15.90;100.00
54996;BME280;40893;47.146;9.126;2022-08-19T04:48:08;90898.72;;;15.91;100.00
54996;BME280;40893;47.146;9.126;2022-08-19T04:50:34;90906.16;;;15.92;100.00
54996;BME280;40893;47.146;9.126;2022-08-19T04:52:59;90906.91;;;15.93;100.00
54996;BME280;40893;47.146;9.126;2022-08-19T04:55:25;90905.28;;;15.88;100.00
54996;BME280;40893;47.146;9.126;2022-08-19T04:57:51;90901.94;;;15.88;100.00
54996;BME280;40893;47.146;9.126;2022-08-19T05:00:16;90910.31;;;15.85;100.00
54996;BME280;40893;47.146;9.126;2022-08-19T05:02:42;90913.75;;;15.77;100.00
54996;BME280;40893;47.146;9.126;2022-08-19T05:05:08;90918.78;;;15.73;100.00
54996;BME280;40893;47.146;9.126;2022-08-19T05:07:34;90933.38;;;15.78;100.00
54996;BME280;40893;47.146;9.126;2022-08-19T05:09:59;90940.16;;;15.82;100.00
54996;BME280;40893;47.146;9.126;2022-08-19T05:12:25;90944.16;;;15.80;100.00
54996;BME280;40893;47.146;9.126;2022-08-19T05:14:52;90946.78;;;15.71;100.00
54996;BME280;40893;47.146;9.126;2022-08-19T05:17:19;90944.63;;;15.73;100.00
54996;BME280;40893;47.146;9.126;2022-08-19T05:19:44;90950.56;;;15.74;100.00
54996;BME280;40893;47.146;9.126;2022-08-19T05:22:28;90941.75;;;15.75;100.00
54996;BME280;40893;47.146;9.126;2022-08-19T05:24:58;90936.56;;;15.75;100.00
54996;BME280;40893;47.146;9.126;2022-08-19T05:27:24;90929.13;;;15.73;100.00
54996;BME280;40893;47.146;9.126;2022-08-19T05:29:49;90933.69;;;15.76;100.00
54996;BME280;40893;47.146;9.126;2022-08-19T05:32:15;90933.38;;;15.78;100.00
54996;BME280;40893;47.146;9.126;2022-08-19T05:34:40;90939.84;;;15.84;100.00
54996;BME280;40893;47.146;9.126;2022-08-19T05:37:06;90934.81;;;15.87;100.00
54996;BME280;40893;47.146;9.126;2022-08-19T05:39:35;90936.94;;;15.85;100.00
54996;BME280;40893;47.146;9.126;2022-08-19T05:42:07;90939.97;;;15.87;100.00
54996;BME280;40893;47.146;9.126;2022-08-19T05:44:36;90937.84;;;15.89;100.00
54996;BME280;40893;47.146;9.126;2022-08-19T05:47:04;90932.66;;;15.89;100.00
54996;BME280;40893;47.146;9.126;2022-08-19T05:49:34;90939.09;;;15.83;100.00
54996;BME280;40893;47.146;9.126;2022-08-19T05:52:03;90938.31;;;15.83;100.00
54996;BME280;40893;47.146;9.126;2022-08-19T05:54:29;90936.94;;;15.85;100.00
54996;BME280;40893;47.146;9.126;2022-08-19T05:56:56;90934.94;;;15.91;100.00
54996;BME280;40893;47.146;9.126;2022-08-19T05:59:22;90939.78;;;15.92;100.00
54996;BME280;40893;47.146;9.126;2022-08-19T06:01:52;90934.34;;;15.85;100.00
54996;BME280;40893;47.146;9.126;2022-08-19T06:04:21;90930.25;;;15.84;100.00
54996;BME280;40893;47.146;9.126;2022-08-19T06:06:49;90925.09;;;15.84;100.00
54996;BME280;40893;47.146;9.126;2022-08-19T06:09:17;90936.19;;;15.85;100.00
54996;BME280;40893;47.146;9.126;2022-08-19T06:11:49;90938.16;;;15.88;100.00
54996;BME280;40893;47.146;9.126;2022-08-19T06:14:20;90935.13;;;15.86;100.00
54996;BME280;40893;47.146;9.126;2022-08-19T06:16:47;90940.91;;;15.83;100.00
54996;BME280;40893;47.146;9.126;2022-08-19T06:19:17;90942.63;;;15.79;100.00
54996;BME280;40893;47.146;9.126;2022-08-19T06:21:44;90938.25;;;15.71;100.00
54996;BME280;40893;47.146;9.126;2022-08-19T06:24:12;90948.59;;;15.71;100.00
54996;BME280;40893;47.146;9.126;2022-08-19T06:26:41;90938.72;;;15.73;100.00
54996;BME280;40893;47.146;9.126;2022-08-19T06:29:09;90936.81;;;15.82;100.00
54996;BME280;40893;47.146;9.126;2022-08-19T06:31:35;90931.63;;;15.82;100.00
54996;BME280;40893;47.146;9.126;2022-08-19T06:34:04;90931.31;;;15.83;100.00
54996;BME280;40893;47.146;9.126;2022-08-19T06:36:36;90928.75;;;15.83;100.00
54996;BME280;40893;47.146;9.126;2022-08-19T06:39:08;90933.06;;;15.79;100.00
54996;BME280;40893;47.146;9.126;2022-08-19T06:41:36;90930.63;;;15.74;100.00
54996;BME280;40893;47.146;9.126;2022-08-19T06:44:03;90936.75;;;15.70;100.00
54996;BME280;40893;47.146;9.126;2022-08-19T06:46:29;90936.00;;;15.69;100.00
54996;BME280;40893;47.146;9.126;2022-08-19T06:48:56;90939.34;;;15.70;100.00
54996;BME280;40893;47.146;9.126;2022-08-19T06:51:22;90937.56;;;15.61;100.00
54996;BME280;40893;47.146;9.126;2022-08-19T06:53:50;90941.50;;;15.68;100.00
54996;BME280;40893;47.146;9.126;2022-08-19T06:56:19;90954.09;;;15.69;100.00
54996;BME280;40893;47.146;9.126;2022-08-19T06:58:46;90950.63;;;15.65;100.00
54996;BME280;40893;47.146;9.126;2022-08-19T07:01:12;90957.00;;;15.68;100.00
54996;BME280;40893;47.146;9.126;2022-08-19T07:03:38;90950.56;;;15.74;100.00
54996;BME280;40893;47.146;9.126;2022-08-19T07:06:06;90958.63;;;15.72;100.00
54996;BME280;40893;47.146;9.126;2022-08-19T07:08:33;90952.09;;;15.75;100.00
54996;BME280;40893;47.146;9.126;2022-08-19T07:11:00;90951.16;;;15.79;100.00
54996;BME280;40893;47.146;9.126;2022-08-19T07:13:26;90955.13;;;15.77;100.00
54996;BME280;40893;47.146;9.126;2022-08-19T07:15:51;90959.53;;;15.76;100.00
54996;BME280;40893;47.146;9.126;2022-08-19T07:18:19;90957.72;;;15.77;100.00
54996;BME280;40893;47.146;9.126;2022-08-19T07:20:45;90968.06;;;15.77;100.00
54996;BME280;40893;47.146;9.126;2022-08-19T07:23:10;90958.47;;;15.77;100.00
54996;BME280;40893;47.146;9.126;2022-08-19T07:25:37;90971.84;;;15.79;100.00
54996;BME280;40893;47.146;9.126;2022-08-19T07:28:03;90971.63;;;15.84;100.00
54996;BME280;40893;47.146;9.126;2022-08-19T07:30:29;90975.44;;;15.87;100.00
54996;BME280;40893;47.146;9.126;2022-08-19T07:32:55;90983.63;;;15.89;100.00
54996;BME280;40893;47.146;9.126;2022-08-19T07:35:22;90979.09;;;15.86;100.00
54996;BME280;40893;47.146;9.126;2022-08-19T07:37:48;90978.19;;;15.82;100.00
54996;BME280;40893;47.146;9.126;2022-08-19T07:40:14;90979.53;;;15.67;100.00
54996;BME280;40893;47.146;9.126;2022-08-19T07:42:40;90979.53;;;15.67;100.00
54996;BME280;40893;47.146;9.126;2022-08-19T07:45:07;90986.38;;;15.63;100.00
54996;BME280;40893;47.146;9.126;2022-08-19T07:47:33;90983.03;;;15.63;100.00
54996;BME280;40893;47.146;9.126;2022-08-19T07:49:59;90990.78;;;15.63;100.00
54996;BME280;40893;47.146;9.126;2022-08-19T07:52:25;90988.03;;;15.68;100.00
54996;BME280;40893;47.146;9.126;2022-08-19T07:54:50;90993.31;;;15.71;100.00
54996;BME280;40893;47.146;9.126;2022-08-19T07:57:16;90994.94;;;15.55;100.00
54996;BME280;40893;47.146;9.126;2022-08-19T07:59:42;90993.88;;;15.47;100.00
54996;BME280;40893;47.146;9.126;2022-08-19T08:02:08;90995.09;;;15.50;100.00
54996;BME280;40893;47.146;9.126;2022-08-19T08:04:34;90998.13;;;15.52;100.00
54996;BME280;40893;47.146;9.126;2022-08-19T08:07:18;91004.53;;;15.54;100.00
54996;BME280;40893;47.146;9.126;2022-08-19T08:10:04;91000.88;;;15.55;100.00
54996;BME280;40893;47.146;9.126;2022-08-19T08:12:34;91006.06;;;15.55;100.00
54996;BME280;40893;47.146;9.126;2022-08-19T08:15:07;91014.56;;;15.56;100.00
54996;BME280;40893;47.146;9.126;2022-08-19T08:17:33;91009.09;;;15.57;100.00
54996;BME280;40893;47.146;9.126;2022-08-19T08:19:58;91011.81;;;15.52;100.00
54996;BME280;40893;47.146;9.126;2022-08-19T08:22:25;91004.81;;;15.53;100.00
54996;BME280;40893;47.146;9.126;2022-08-19T08:25:18;91012.75;;;15.56;100.00
54996;BME280;40893;47.146;9.126;2022-08-19T08:27:45;91024.59;;;15.57;100.00
54996;BME280;40893;47.146;9.126;2022-08-19T08:30:14;91022.16;;;15.52;100.00
54996;BME280;40893;47.146;9.126;2022-08-19T08:32:41;91024.47;;;15.45;100.00
54996;BME280;40893;47.146;9.126;2022-08-19T08:35:13;91023.56;;;15.41;100.00
54996;BME280;40893;47.146;9.126;2022-08-19T08:37:39;91030.25;;;15.42;100.00
54996;BME280;40893;47.146;9.126;2022-08-19T08:40:09;91035.56;;;15.46;100.00
54996;BME280;40893;47.146;9.126;2022-08-19T08:42:45;91026.31;;;15.45;100.00
54996;BME280;40893;47.146;9.126;2022-08-19T08:45:17;91039.34;;;15.48;100.00
54996;BME280;40893;47.146;9.126;2022-08-19T08:47:48;91043.13;;;15.51;100.00
54996;BME280;40893;47.146;9.126;2022-08-19T08:50:21;91041.06;;;15.44;100.00
54996;BME280;40893;47.146;9.126;2022-08-19T08:52:52;91042.56;;;15.45;100.00
54996;BME280;40893;47.146;9.126;2022-08-19T08:55:26;91054.41;;;15.46;100.00
54996;BME280;40893;47.146;9.126;2022-08-19T08:58:04;91053.06;;;15.40;100.00
54996;BME280;40893;47.146;9.126;2022-08-19T09:00:37;91064.81;;;15.29;100.00
54996;BME280;40893;47.146;9.126;2022-08-19T09:03:11;91063.47;;;15.23;100.00
54996;BME280;40893;47.146;9.126;2022-08-19T09:11:05;91081.13;;;15.21;100.00
54996;BME280;40893;47.146;9.126;2022-08-19T09:16:16;91086.91;;;15.09;100.00
54996;BME280;40893;47.146;9.126;2022-08-19T09:18:44;91098.00;;;15.01;100.00
54996;BME280;40893;47.146;9.126;2022-08-19T09:21:13;91097.72;;;14.94;100.00
54996;BME280;40893;47.146;9.126;2022-08-19T09:23:39;91100.03;;;14.87;100.00
54996;BME280;40893;47.146;9.126;2022-08-19T09:26:14;91101.38;;;14.84;100.00
54996;BME280;40893;47.146;9.126;2022-08-19T09:28:45;91105.78;;;14.93;100.00
54996;BME280;40893;47.146;9.126;2022-08-19T09:31:11;91099.56;;;14.94;100.00
54996;BME280;40893;47.146;9.126;2022-08-19T09:33:37;91105.78;;;14.93;100.00
54996;BME280;40893;47.146;9.126;2022-08-19T09:36:08;91096.09;;;14.89;100.00
54996;BME280;40893;47.146;9.126;2022-08-19T09:38:35;91099.56;;;14.85;100.00
54996;BME280;40893;47.146;9.126;2022-08-19T09:41:07;91111.56;;;14.81;100.00
54996;BME280;40893;47.146;9.126;2022-08-19T09:43:34;91113.09;;;14.73;100.00
54996;BME280;40893;47.146;9.126;2022-08-19T09:46:03;91113.56;;;14.75;100.00
54996;BME280;40893;47.146;9.126;2022-08-19T09:48:31;91117.34;;;14.78;100.00
54996;BME280;40893;47.146;9.126;2022-08-19T09:51:24;91119.59;;;14.79;100.00
54996;BME280;40893;47.146;9.126;2022-08-19T09:53:52;91119.19;;;14.77;100.00
54996;BME280;40893;47.146;9.126;2022-08-19T09:56:22;91124.78;;;14.71;100.00
54996;BME280;40893;47.146;9.126;2022-08-19T09:58:48;91125.72;;;14.66;100.00
54996;BME280;40893;47.146;9.126;2022-08-19T10:01:24;91123.56;;;14.68;100.00
54996;BME280;40893;47.146;9.126;2022-08-19T10:03:53;91130.41;;;14.64;100.00
54996;BME280;40893;47.146;9.126;2022-08-19T10:06:20;91130.88;;;14.66;100.00
54996;BME280;40893;47.146;9.126;2022-08-19T10:08:46;91135.28;;;14.66;100.00
54996;BME280;40893;47.146;9.126;2022-08-19T10:11:13;91133.00;;;14.64;100.00
54996;BME280;40893;47.146;9.126;2022-08-19T10:13:42;91135.72;;;14.59;100.00
54996;BME280;40893;47.146;9.126;2022-08-19T10:16:10;91138.00;;;14.61;100.00
54996;BME280;40893;47.146;9.126;2022-08-19T10:18:37;91141.34;;;14.61;100.00
54996;BME280;40893;47.146;9.126;2022-08-19T10:21:12;91137.53;;;14.59;100.00
54996;BME280;40893;47.146;9.126;2022-08-19T10:23:39;91135.25;;;14.57;100.00
54996;BME280;40893;47.146;9.126;2022-08-19T10:26:06;91140.28;;;14.62;100.00
54996;BME280;40893;47.146;9.126;2022-08-19T10:28:34;91138.59;;;14.58;100.00
54996;BME280;40893;47.146;9.126;2022-08-19T10:31:20;91131.03;;;14.44;100.00
54996;BME280;40893;47.146;9.126;2022-08-19T10:33:50;91124.59;;;14.33;100.00
54996;BME280;40893;47.146;9.126;2022-08-19T10:36:24;91129.44;;;14.26;100.00
54996;BME280;40893;47.146;9.126;2022-08-19T10:38:53;91133.25;;;14.28;100.00
54996;BME280;40893;47.146;9.126;2022-08-19T10:41:27;91135.53;;;14.30;100.00
54996;BME280;40893;47.146;9.126;2022-08-19T10:43:56;91133.53;;;14.35;100.00
54996;BME280;40893;47.146;9.126;2022-08-19T10:46:24;91125.09;;;14.43;100.00
54996;BME280;40893;47.146;9.126;2022-08-19T10:48:50;91132.22;;;14.46;100.00
54996;BME280;40893;47.146;9.126;2022-08-19T10:51:20;91129.19;;;14.44;100.00
54996;BME280;40893;47.146;9.126;2022-08-19T10:54:05;91143.94;;;14.44;100.00
54996;BME280;40893;47.146;9.126;2022-08-19T10:56:33;91148.75;;;14.45;100.00
54996;BME280;40893;47.146;9.126;2022-08-19T10:59:28;91143.09;;;14.35;100.00
54996;BME280;40893;47.146;9.126;2022-08-19T11:02:15;91132.94;;;14.30;100.00
54996;BME280;40893;47.146;9.126;2022-08-19T11:04:41;91136.88;;;14.27;100.00
54996;BME280;40893;47.146;9.126;2022-08-19T11:07:07;91141.13;;;14.23;100.00
54996;BME280;40893;47.146;9.126;2022-08-19T11:09:40;91135.97;;;14.23;100.00
54996;BME280;40893;47.146;9.126;2022-08-19T11:12:07;91140.06;;;14.24;100.00
54996;BME280;40893;47.146;9.126;2022-08-19T11:14:33;91126.84;;;14.26;100.00
54996;BME280;40893;47.146;9.126;2022-08-19T11:16:59;91130.78;;;14.23;100.00
54996;BME280;40893;47.146;9.126;2022-08-19T11:19:25;91135.19;;;14.23;100.00
54996;BME280;40893;47.146;9.126;2022-08-19T11:21:51;91148.72;;;14.20;100.00
54996;BME280;40893;47.146;9.126;2022-08-19T11:24:23;91157.66;;;14.22;100.00
54996;BME280;40893;47.146;9.126;2022-08-19T11:26:51;91160.88;;;14.28;100.00
54996;BME280;40893;47.146;9.126;2022-08-19T11:29:21;91150.53;;;14.28;100.00
54996;BME280;40893;47.146;9.126;2022-08-19T11:31:51;91155.09;;;14.31;100.00
54996;BME280;40893;47.146;9.126;2022-08-19T11:34:19;91155.41;;;14.38;100.00
54996;BME280;40893;47.146;9.126;2022-08-19T11:36:47;91144.16;;;14.34;100.00
54996;BME280;40893;47.146;9.126;2022-08-19T11:39:16;91155.72;;;14.36;100.00
54996;BME280;40893;47.146;9.126;2022-08-19T11:41:41;91160.41;;;14.34;100.00
54996;BME280;40893;47.146;9.126;2022-08-19T11:44:07;91151.16;;;14.33;100.00
54996;BME280;40893;47.146;9.126;2022-08-19T11:46:35;91151.13;;;14.25;100.00
54996;BME280;40893;47.146;9.126;2022-08-19T11:49:08;91157.53;;;14.27;100.00
54996;BME280;40893;47.146;9.126;2022-08-19T11:51:34;91165.44;;;14.31;100.00
54996;BME280;40893;47.146;9.126;2022-08-19T11:54:04;91157.41;;;14.32;100.00
54996;BME280;40893;47.146;9.126;2022-08-19T11:56:29;91165.13;;;14.32;100.00
54996;BME280;40893;47.146;9.126;2022-08-19T11:58:55;91166.31;;;14.35;100.00
54996;BME280;40893;47.146;9.126;2022-08-19T12:01:23;91173.47;;;14.29;100.00
54996;BME280;40893;47.146;9.126;2022-08-19T12:03:51;91167.53;;;14.29;100.00
54996;BME280;40893;47.146;9.126;2022-08-19T12:06:20;91185.91;;;14.27;100.00
54996;BME280;40893;47.146;9.126;2022-08-19T12:08:49;91171.16;;;14.10;100.00
54996;BME280;40893;47.146;9.126;2022-08-19T12:11:15;91150.81;;;14.09;100.00
54996;BME280;40893;47.146;9.126;2022-08-19T12:13:41;91143.50;;;14.02;100.00
54996;BME280;40893;47.146;9.126;2022-08-19T12:16:22;91165.34;;;14.05;100.00
54996;BME280;40893;47.146;9.126;2022-08-19T12:18:52;91135.00;;;14.02;100.00
54996;BME280;40893;47.146;9.126;2022-08-19T12:21:25;91160.19;;;14.05;100.00
54996;BME280;40893;47.146;9.126;2022-08-19T12:23:59;91156.41;;;14.11;100.00
54996;BME280;40893;47.146;9.126;2022-08-19T12:26:27;91148.53;;;14.16;100.00
54996;BME280;40893;47.146;9.126;2022-08-19T12:29:28;91160.41;;;14.26;100.00
54996;BME280;40893;47.146;9.126;2022-08-19T12:32:02;91140.97;;;14.28;100.00
54996;BME280;40893;47.146;9.126;2022-08-19T12:34:30;91156.63;;;14.32;100.00
54996;BME280;40893;47.146;9.126;2022-08-19T12:37:19;91136.28;;;14.30;100.00
54996;BME280;40893;47.146;9.126;2022-08-19T12:40:11;91114.41;;;14.28;100.00
54996;BME280;40893;47.146;9.126;2022-08-19T12:42:44;91144.16;;;14.34;100.00
54996;BME280;40893;47.146;9.126;2022-08-19T12:45:11;91153.88;;;14.37;100.00
54996;BME280;40893;47.146;9.126;2022-08-19T12:47:37;91143.94;;;14.44;100.00
54996;BME280;40893;47.146;9.126;2022-08-19T12:50:04;91153.91;;;14.45;100.00
54996;BME280;40893;47.146;9.126;2022-08-19T12:52:31;91153.16;;;14.45;100.00
54996;BME280;40893;47.146;9.126;2022-08-19T12:54:57;91156.84;;;14.44;100.00
54996;BME280;40893;47.146;9.126;2022-08-19T12:57:28;91158.94;;;14.42;100.00
54996;BME280;40893;47.146;9.126;2022-08-19T13:00:16;91155.59;;;14.41;100.00
54996;BME280;40893;47.146;9.126;2022-08-19T13:02:47;91162.09;;;14.39;100.00
54996;BME280;40893;47.146;9.126;2022-08-19T13:05:17;91153.31;;;14.40;100.00
54996;BME280;40893;47.146;9.126;2022-08-19T13:07:45;91156.84;;;14.44;100.00
54996;BME280;40893;47.146;9.126;2022-08-19T13:10:14;91197.03;;;14.45;100.00